McAlister, NM (88427)

1:50 PM MST on December 22, 2014 (GMT -0700)
Tucumcari Municipal | Change Station
CLOSE
Current Station
Airport
Location: Tucumcari,
Elevation: 4065 ft
Nearby Weather Stations
Active Advisory: Winter Weather Advisory

Elev 4065 ft 35.18 °N, 103.60 °W | Updated 57 minutes ago

Mostly Cloudy
Mostly Cloudy
50 °F
Feels Like 50 °F
N
13
Wind Variable Wind from East

Today
High -- | Low -- °F
--% Chance of Precip.
Yesterday
High -- | Low -- °F
Precip. -- in
6:58 AM 4:48 PM
New Moon, 1% visible
Pressure 29.62 in
Visibility 10.0 miles
Clouds Overcast 5500 ft
Dew Point 23 °F
Humidity 35%
Rainfall 0.00 in
Snow Depth Not available.
UV 1 out of 12
Pollen 8.30 out of 12
Air Quality Not available.
Flu Activity Not available.
METAR KTCC 221953Z AUTO 09011KT 10SM OVC055 10/M05 A2969 RMK AO2 SLP031 T01001050

More Conditions Fewer Conditions

Pressure 29.62 in
Visibility 10.0 miles
Clouds Overcast 5500 ft
Dew Point 23 °F
Humidity 35%
Rainfall 0.00 in
Snow Depth Not available.
UV 1 out of 12
Pollen 8.30 out of 12
Air Quality Not available.
Flu Activity Not available.
METAR KTCC 221953Z AUTO 09011KT 10SM OVC055 10/M05 A2969 RMK AO2 SLP031 T01001050

More Conditions Fewer Conditions

10-Day Weather Forecast

Almanac

Astronomy

Dec. 22, 2014 Rise Set
Actual Time
Civil Twilight
Nautical Twilight
Astronomical Twilight
Moon
Length of Visible Light
Length of Day
Tomorrow will be .
, % of the Moon is Illuminated

Today's Extremes

State Highs State Lows

Community

WunderPhotos

Upload Photos

1,779,676 photos uploaded!

WunderBlogs® & News

Nearby

Air Quality

  Air Quality AQ Index Pollutant
Not available.

Snow Depth

Station Depth Elevation

Earthquake Activity

City Distance Mag. Time & Date
Minimum magnitude displayed is 2.5.

Coastal Water Temperatures

Place Temperature

Nearby Weather Stations